Alconbury RAF, United Kingdom

4:49 AM BST on July 28, 2016 (GMT +0100)
Abbots Ripton | | Change Station

Elev 0 ft 52.38 °N, 0.17 °W | Updated 1 minute ago

Mostly Cloudy
Mostly Cloudy
57.2 °F
Feels Like 57.2 °F
N
1.2
Wind Variable Wind from NW
Gusts 3.7 mph

Today
High -- | Low -- °F
--% Chance of Precip.
Yesterday
High -- | Low -- °F
Precip. -- in
Pressure 29.98 in
Visibility 6.2 miles
Clouds Mostly Cloudy 4300 ft
Mostly Cloudy 18000 ft
Dew Point 51 °F
Humidity 80%
Rainfall 0.00 in
Snow Depth Not available.
5:15 AM 8:58 PM
Last Quarter, 36% visible
METAR EGXT 280250Z AUTO 27003KT 9999 BKN043/// BKN180/// 12/10 Q1015
Pressure 29.98 in
Visibility 6.2 miles
Clouds Mostly Cloudy 4300 ft
Mostly Cloudy 18000 ft
Dew Point 51 °F
Humidity 80%
Rainfall 0.00 in
Snow Depth Not available.
5:15 AM 8:58 PM
Last Quarter, 36% visible
METAR EGXT 280250Z AUTO 27003KT 9999 BKN043/// BKN180/// 12/10 Q1015

10-Day Weather Forecast

×

Almanac

Astronomy

Jul. 28, 2016 Rise Set
Actual Time
Civil Twilight
Nautical Twilight
Astronomical Twilight
Moon
Length of Visible Light
Length of Day
Tomorrow will be .
, % of the Moon is Illuminated

Today's Extremes

Country Highs Country Lows

Community

WunderPhotos

Upload Photos

1,928,037 photos uploaded!

WunderBlog® & News

Nearby

Air Quality

  Air Quality AQ Index Pollutant
Not available.

Snow Depth

Station Depth Elevation

Earthquake Activity

City Distance Mag. Time & Date
Minimum magnitude displayed is 2.5.

Coastal Water Temperatures

Place Temperature

Stations

Nearby Weather Stations

Station Location Temp. Windchill Dew Point Humidity Wind Precip. Elev Updated Type